Time;durP1;ratioP1;P1;durP2;ratioP2;P2;SDS_P1;SDS_P2;PMS_P1;PMS_P2;Temp;Humidity;BMP_temperature;BMP_pressure;BME280_temperature;BME280_humidity;BME280_pressure;Samples;Min_cycle;Max_cycle;Signal;HPM_P1;HPM_P2
2023/07/17 00:02:19;;;;;;;5.35;3.20;;;;;;;24.90;43.91;100280.13;5105657;28;20479;-24
2023/07/17 00:04:44;;;;;;;6.63;3.10;;;;;;;24.75;44.51;100273.94;5106200;28;20032;-23
2023/07/17 00:07:10;;;;;;;6.30;3.08;;;;;;;24.61;45.39;100281.34;5105831;28;20065;-24
2023/07/17 00:09:35;;;;;;;6.60;3.70;;;;;;;24.67;45.34;100286.38;5105606;28;20263;-23
2023/07/17 00:12:00;;;;;;;6.35;3.33;;;;;;;24.60;45.60;100274.28;5105512;28;20038;-24
2023/07/17 00:14:26;;;;;;;6.47;3.67;;;;;;;24.67;45.24;100285.56;5104209;28;20012;-24
2023/07/17 00:16:52;;;;;;;6.70;3.47;;;;;;;24.30;46.31;100276.56;5105414;28;20481;-23
2023/07/17 00:19:17;;;;;;;5.43;3.28;;;;;;;24.39;46.65;100279.34;5105435;28;20024;-23
2023/07/17 00:21:43;;;;;;;7.18;3.55;;;;;;;24.29;46.73;100277.66;5105436;28;20469;-23
2023/07/17 00:24:08;;;;;;;10.82;3.97;;;;;;;24.15;47.49;100269.53;5105278;28;20015;-23
2023/07/17 00:26:34;;;;;;;6.03;3.63;;;;;;;24.00;48.30;100283.44;5105413;28;20026;-25
2023/07/17 00:29:19;;;;;;;6.15;3.30;;;;;;;23.95;48.81;100281.63;5105385;28;20030;-23
2023/07/17 00:31:44;;;;;;;5.32;3.10;;;;;;;23.92;49.02;100287.69;5104912;28;20544;-23
2023/07/17 00:34:10;;;;;;;5.55;3.38;;;;;;;23.97;48.78;100284.88;5105057;28;20500;-23
2023/07/17 00:36:35;;;;;;;8.05;3.40;;;;;;;24.04;48.69;100295.34;5104703;28;20020;-23
2023/07/17 00:39:01;;;;;;;9.52;3.40;;;;;;;24.06;49.83;100299.38;5105156;28;20023;-24
2023/07/17 00:41:26;;;;;;;6.72;3.17;;;;;;;24.01;51.59;100295.97;5104425;28;20019;-24
2023/07/17 00:43:51;;;;;;;6.65;3.65;;;;;;;24.14;49.43;100311.47;5104442;28;20682;-24
2023/07/17 00:46:18;;;;;;;6.05;3.60;;;;;;;24.11;53.63;100303.94;5103973;28;20487;-24
2023/07/17 00:48:43;;;;;;;7.15;4.10;;;;;;;24.42;51.85;100309.53;5104426;28;20085;-23
2023/07/17 00:51:09;;;;;;;6.55;3.70;;;;;;;24.12;51.01;100319.16;5104275;28;20762;-23
2023/07/17 00:53:34;;;;;;;6.80;3.63;;;;;;;23.81;51.93;100308.06;5104928;28;20054;-24
2023/07/17 00:56:00;;;;;;;8.10;3.45;;;;;;;23.93;54.85;100316.53;5104749;28;20023;-26
2023/07/17 00:58:25;;;;;;;6.35;4.07;;;;;;;24.09;54.95;100316.22;5104562;28;20650;-23
2023/07/17 01:00:51;;;;;;;6.75;3.42;;;;;;;23.97;55.08;100323.00;5104605;28;20027;-23
2023/07/17 01:03:16;;;;;;;7.13;4.00;;;;;;;24.04;54.34;100312.50;5104679;28;20031;-23
2023/07/17 01:05:42;;;;;;;6.18;3.60;;;;;;;24.16;55.44;100311.19;5104755;28;20028;-23
2023/07/17 01:08:07;;;;;;;6.28;3.70;;;;;;;24.22;54.57;100302.59;5104408;28;20035;-24
2023/07/17 01:10:33;;;;;;;7.68;3.72;;;;;;;24.06;54.39;100307.53;5104760;28;20137;-31
2023/07/17 01:12:58;;;;;;;8.32;3.72;;;;;;;23.98;55.24;100310.97;5104594;28;20075;-23
2023/07/17 01:15:24;;;;;;;7.85;4.20;;;;;;;24.10;54.19;100309.69;5104170;28;20036;-22
2023/07/17 01:17:50;;;;;;;7.45;3.88;;;;;;;23.90;54.80;100314.41;5104570;28;20093;-24
2023/07/17 01:20:17;;;;;;;7.90;3.83;;;;;;;23.78;56.26;100314.94;5104659;28;20019;-22
2023/07/17 01:22:55;;;;;;;13.52;4.43;;;;;;;23.62;56.32;100313.53;5104173;28;20770;-24
2023/07/17 01:25:21;;;;;;;16.02;4.43;;;;;;;23.33;57.75;100317.31;5104412;28;20035;-23
2023/07/17 01:27:46;;;;;;;9.88;4.50;;;;;;;23.40;57.35;100330.56;5104034;28;20026;-23
2023/07/17 01:30:12;;;;;;;9.75;4.40;;;;;;;23.45;57.62;100317.63;5104815;28;20023;-23
2023/07/17 01:32:37;;;;;;;13.30;5.15;;;;;;;23.50;58.26;100324.94;5104463;28;20023;-23
2023/07/17 01:35:03;;;;;;;13.00;4.57;;;;;;;23.35;56.11;100323.25;5104695;28;20053;-24
2023/07/17 01:37:29;;;;;;;10.18;3.85;;;;;;;23.31;58.34;100322.25;5104202;28;20051;-23
2023/07/17 01:39:54;;;;;;;7.40;3.97;;;;;;;23.35;58.15;100322.44;5103898;28;20035;-22
2023/07/17 01:42:19;;;;;;;9.07;3.83;;;;;;;23.15;56.99;100318.97;5104117;28;20024;-22
2023/07/17 01:44:45;;;;;;;7.03;4.05;;;;;;;23.17;58.98;100327.66;5103904;28;20024;-23
2023/07/17 01:47:13;;;;;;;6.90;3.78;;;;;;;23.07;58.44;100311.50;5104210;28;20051;-23
2023/07/17 01:49:38;;;;;;;9.40;3.97;;;;;;;23.06;57.73;100312.59;5104096;28;20023;-23
2023/07/17 01:52:04;;;;;;;9.10;4.32;;;;;;;23.47;57.94;100320.06;5104326;28;20047;-23
2023/07/17 01:54:30;;;;;;;8.40;4.07;;;;;;;23.15;55.92;100323.59;5104300;28;20024;-23
2023/07/17 01:56:55;;;;;;;7.05;4.15;;;;;;;23.07;56.55;100308.78;5103871;28;20412;-23
2023/07/17 01:59:20;;;;;;;6.68;4.00;;;;;;;23.26;56.45;100317.69;5103797;28;20044;-23
2023/07/17 02:01:46;;;;;;;8.43;4.20;;;;;;;23.22;58.12;100324.84;5103755;28;20023;-23
2023/07/17 02:04:11;;;;;;;8.68;3.92;;;;;;;23.27;56.65;100315.78;5103866;28;20031;-23
2023/07/17 02:06:39;;;;;;;5.78;3.80;;;;;;;23.28;55.94;100328.28;5104073;28;20040;-23
2023/07/17 02:09:05;;;;;;;7.68;4.32;;;;;;;23.09;58.93;100322.88;5103905;28;20454;-23
2023/07/17 02:11:30;;;;;;;9.43;4.35;;;;;;;23.37;57.42;100331.94;5103594;28;20492;-23
2023/07/17 02:13:56;;;;;;;6.22;3.92;;;;;;;23.17;58.27;100322.22;5107184;28;20822;-23
2023/07/17 02:16:21;;;;;;;6.93;4.13;;;;;;;23.15;57.96;100329.88;5107792;28;20060;-23
2023/07/17 02:18:47;;;;;;;6.20;3.92;;;;;;;23.19;58.11;100320.00;5107832;28;20526;-23
2023/07/17 02:21:12;;;;;;;6.55;4.22;;;;;;;23.25;58.72;100328.88;5107720;28;20032;-23
2023/07/17 02:23:37;;;;;;;8.07;4.22;;;;;;;23.33;57.89;100333.63;5107200;28;20054;-23
2023/07/17 02:26:03;;;;;;;7.30;3.92;;;;;;;23.23;57.11;100323.75;5107977;28;20027;-23
2023/07/17 02:28:29;;;;;;;6.20;4.22;;;;;;;23.05;56.74;100327.31;5107496;28;20034;-22
2023/07/17 02:30:54;;;;;;;9.93;4.65;;;;;;;22.95;59.15;100332.88;5107432;28;20409;-23
2023/07/17 02:33:20;;;;;;;7.18;3.95;;;;;;;22.89;57.97;100325.91;5107257;28;20915;-23
2023/07/17 02:35:45;;;;;;;7.70;4.47;;;;;;;23.06;58.11;100328.91;5107522;28;20027;-23
2023/07/17 02:38:11;;;;;;;6.28;4.15;;;;;;;23.01;58.71;100324.38;5107615;28;20031;-23
2023/07/17 02:40:36;;;;;;;9.13;4.60;;;;;;;23.14;58.57;100328.22;5107611;28;20100;-23
2023/07/17 02:43:02;;;;;;;11.52;5.80;;;;;;;23.26;56.61;100331.31;5107752;28;20031;-24
2023/07/17 02:45:27;;;;;;;10.13;4.63;;;;;;;23.46;57.29;100334.81;5107493;28;20059;-23
2023/07/17 02:47:53;;;;;;;12.23;4.57;;;;;;;23.14;56.29;100328.22;5107106;28;20138;-23
2023/07/17 02:50:18;;;;;;;13.57;5.35;;;;;;;23.18;57.72;100340.13;5107202;28;20027;-23
2023/07/17 02:52:44;;;;;;;13.50;5.15;;;;;;;23.13;56.83;100337.50;5106974;28;20483;-24
2023/07/17 02:55:13;;;;;;;10.43;5.57;;;;;;;22.92;56.83;100326.09;5107152;28;20027;-23
2023/07/17 02:57:38;;;;;;;8.35;5.15;;;;;;;22.69;57.48;100333.22;5106981;28;20032;-25
2023/07/17 03:00:08;;;;;;;12.15;6.13;;;;;;;22.74;57.45;100332.34;5106835;28;20062;-23
2023/07/17 03:02:44;;;;;;;39.38;8.43;;;;;;;22.53;60.09;100331.81;5105683;28;20015;-25
2023/07/17 03:05:11;;;;;;;19.75;7.03;;;;;;;22.73;60.87;100334.25;5106808;27;20054;-23
2023/07/17 03:07:38;;;;;;;21.40;6.50;;;;;;;22.63;62.04;100329.75;5107050;28;20500;-23
2023/07/17 03:10:05;;;;;;;16.52;7.38;;;;;;;22.74;59.77;100327.72;5107048;28;20028;-23
2023/07/17 03:12:33;;;;;;;15.95;7.30;;;;;;;22.63;59.89;100328.97;5106336;28;20784;-23
2023/07/17 03:14:58;;;;;;;17.92;8.25;;;;;;;22.61;60.64;100326.53;5107029;28;20929;-23
2023/07/17 03:17:24;;;;;;;23.67;8.55;;;;;;;22.66;60.14;100323.75;5106779;28;20027;-23
2023/07/17 03:19:51;;;;;;;19.55;8.52;;;;;;;22.71;60.94;100328.31;5106720;28;20110;-24
2023/07/17 03:22:16;;;;;;;23.30;8.43;;;;;;;22.64;61.49;100325.97;5106408;28;20559;-22
2023/07/17 03:24:42;;;;;;;38.35;15.43;;;;;;;22.55;59.95;100326.91;5105409;28;20024;-22
2023/07/17 03:27:07;;;;;;;30.25;13.68;;;;;;;22.67;60.81;100340.88;5106716;28;20675;-22
2023/07/17 03:29:33;;;;;;;27.48;12.15;;;;;;;22.59;61.07;100334.16;5106280;28;20027;-22
2023/07/17 03:31:58;;;;;;;39.55;16.63;;;;;;;22.36;61.02;100340.47;5104209;28;20044;-22
2023/07/17 03:34:24;;;;;;;83.78;40.13;;;;;;;22.41;61.69;100341.22;5106404;28;20068;-23
2023/07/17 03:36:49;;;;;;;92.18;44.15;;;;;;;22.44;63.21;100337.09;5106489;28;20028;-25
2023/07/17 03:39:14;;;;;;;116.70;49.00;;;;;;;;;;5106347;28;20046;-22
2023/07/17 03:41:40;;;;;;;108.90;51.40;;;;;;;22.69;62.51;100344.09;5106580;28;20036;-25
2023/07/17 03:44:06;;;;;;;93.80;46.25;;;;;;;22.85;62.38;100347.41;5106293;28;20028;-23
2023/07/17 03:46:32;;;;;;;95.75;43.53;;;;;;;22.75;62.44;100329.34;5106460;27;20136;-23
2023/07/17 03:48:57;;;;;;;94.05;43.63;;;;;;;23.00;60.01;100343.66;5106187;28;20047;-24
2023/07/17 03:51:23;;;;;;;75.78;38.05;;;;;;;22.92;60.18;100349.75;5105966;28;20374;-24
2023/07/17 03:53:50;;;;;;;69.68;31.17;;;;;;;22.99;59.22;100350.22;5106072;28;20042;-23
2023/07/17 03:56:15;;;;;;;46.80;24.85;;;;;;;22.86;59.52;100354.47;5105785;28;20035;-23
2023/07/17 03:58:40;;;;;;;54.13;24.10;;;;;;;22.84;59.12;100362.94;5105972;28;20107;-23
2023/07/17 04:01:06;;;;;;;46.20;23.60;;;;;;;22.83;59.17;100364.03;5105823;28;20862;-25
2023/07/17 04:03:31;;;;;;;48.95;22.95;;;;;;;22.69;60.45;100360.41;5105850;28;20405;-23
2023/07/17 04:05:57;;;;;;;43.25;21.38;;;;;;;22.82;59.43;100358.88;5105813;28;20023;-23
2023/07/17 04:08:22;;;;;;;38.10;19.88;;;;;;;22.89;58.70;100359.31;5105861;28;20059;-23
2023/07/17 04:10:52;;;;;;;45.30;18.73;;;;;;;22.83;58.34;100355.88;5105807;28;20058;-23
2023/07/17 04:13:18;;;;;;;42.45;21.27;;;;;;;22.71;59.50;100357.41;5105353;27;20036;-23
2023/07/17 04:15:43;;;;;;;32.97;17.33;;;;;;;22.85;59.97;100364.53;5105607;28;20027;-23
2023/07/17 04:18:09;;;;;;;30.67;16.30;;;;;;;22.87;59.80;100359.63;5105596;28;20031;-23
2023/07/17 04:20:38;;;;;;;28.20;14.35;;;;;;;23.22;58.32;100365.66;5105438;28;20028;-24
2023/07/17 04:23:06;;;;;;;27.92;15.32;;;;;;;23.36;58.13;100356.75;5105264;28;20436;-23
2023/07/17 04:25:32;;;;;;;27.33;13.27;;;;;;;23.44;58.14;100369.66;5105443;28;20063;-23
2023/07/17 04:27:57;;;;;;;16.70;9.00;;;;;;;23.42;57.82;100382.78;5105124;28;20058;-23
2023/07/17 04:30:23;;;;;;;12.48;7.40;;;;;;;23.66;56.52;100379.94;5105109;28;20116;-23
2023/07/17 04:32:51;;;;;;;12.55;7.28;;;;;;;23.76;56.09;100387.09;5105123;28;20028;-23
2023/07/17 04:35:17;;;;;;;11.95;8.23;;;;;;;23.84;56.11;100397.31;5104765;28;20084;-22
2023/07/17 04:37:45;;;;;;;21.65;12.32;;;;;;;23.95;55.37;100401.50;5105256;28;20490;-23
2023/07/17 04:40:11;;;;;;;23.10;12.85;;;;;;;23.81;57.35;100395.22;5105214;28;20104;-28
2023/07/17 04:42:38;;;;;;;14.95;8.85;;;;;;;24.05;54.83;100401.31;5105542;28;20775;-23
2023/07/17 04:45:05;;;;;;;11.15;6.85;;;;;;;24.11;54.94;100387.56;5105034;28;20053;-23
2023/07/17 04:47:31;;;;;;;13.27;6.13;;;;;;;24.08;55.66;100393.63;5105311;28;20027;-23
2023/07/17 04:49:57;;;;;;;8.65;6.05;;;;;;;24.11;55.64;100387.56;5104908;28;20034;-23
2023/07/17 04:52:22;;;;;;;11.52;6.10;;;;;;;24.18;55.67;100396.97;5105105;28;20028;-23
2023/07/17 04:54:47;;;;;;;9.25;5.55;;;;;;;24.16;57.13;100399.19;5104468;28;20023;-23
2023/07/17 04:57:13;;;;;;;9.70;5.82;;;;;;;24.16;57.04;100390.22;5104934;28;20027;-23
2023/07/17 04:59:38;;;;;;;8.77;5.10;;;;;;;24.17;56.15;100397.25;5105159;28;20148;-23
2023/07/17 05:02:04;;;;;;;9.85;5.05;;;;;;;24.03;56.63;100397.28;5104738;28;20589;-23
2023/07/17 05:04:31;;;;;;;7.68;5.15;;;;;;;23.85;57.30;100396.22;5104597;28;20449;-23
2023/07/17 05:06:58;;;;;;;;;;;;;;;24.18;56.89;100407.06;5104965;28;20076;-22
2023/07/17 05:09:23;;;;;;;7.80;5.30;;;;;;;24.27;57.13;100392.44;5104706;28;19955;-23
2023/07/17 05:11:49;;;;;;;9.13;5.05;;;;;;;24.41;57.07;100400.59;5104458;28;20024;-23
2023/07/17 05:14:15;;;;;;;9.40;5.35;;;;;;;24.74;56.53;100405.13;5104306;28;20020;-24
2023/07/17 05:16:40;;;;;;;8.00;4.78;;;;;;;24.76;55.16;100402.91;5104873;28;20031;-23
2023/07/17 05:19:06;;;;;;;7.40;4.88;;;;;;;24.72;54.94;100402.72;5104575;28;20429;-23
2023/07/17 05:21:32;;;;;;;9.90;4.85;;;;;;;24.54;52.92;100407.19;5104795;28;20031;-23
2023/07/17 05:24:00;;;;;;;6.22;4.35;;;;;;;24.71;53.37;100411.22;5104635;28;20584;-23
2023/07/17 05:26:25;;;;;;;10.60;5.13;;;;;;;24.51;54.77;100404.25;5104580;28;20047;-23
2023/07/17 05:28:51;;;;;;;9.45;5.18;;;;;;;24.68;54.17;100407.16;5104086;28;20059;-23
2023/07/17 05:31:16;;;;;;;7.90;4.45;;;;;;;24.84;52.45;100404.91;5104572;28;20027;-23
2023/07/17 05:33:42;;;;;;;10.32;4.72;;;;;;;25.09;51.58;100408.19;5104178;28;20067;-25
2023/07/17 05:36:07;;;;;;;10.05;4.95;;;;;;;25.16;52.11;100406.66;5104658;28;20465;-23
2023/07/17 05:38:33;;;;;;;7.70;4.50;;;;;;;25.12;53.49;100405.66;5104245;28;20537;-23
2023/07/17 05:41:05;;;;;;;8.68;4.70;;;;;;;25.17;53.12;100391.91;5104235;28;20512;-23
2023/07/17 05:43:31;;;;;;;10.38;4.63;;;;;;;25.28;52.30;100405.34;5104382;28;20027;-23
2023/07/17 05:45:57;;;;;;;7.35;4.70;;;;;;;25.42;51.79;100411.56;5104019;28;20036;-23
2023/07/17 05:48:22;;;;;;;5.85;4.05;;;;;;;25.43;51.08;100396.78;5106480;28;20030;-23
2023/07/17 05:50:48;;;;;;;6.35;4.05;;;;;;;25.62;50.05;100396.56;5108042;28;20027;-24
2023/07/17 05:53:16;;;;;;;8.40;4.55;;;;;;;25.84;51.86;100399.25;5108403;28;20031;-24
2023/07/17 05:55:43;;;;;;;10.00;4.47;;;;;;;26.10;51.70;100401.34;5108670;28;20520;-23
2023/07/17 05:58:09;;;;;;;6.57;4.63;;;;;;;26.08;51.71;100402.81;5108475;28;20050;-23
2023/07/17 06:00:34;;;;;;;10.70;5.88;;;;;;;25.95;51.46;100388.91;5108004;28;20065;-23
2023/07/17 06:03:00;;;;;;;7.07;4.38;;;;;;;26.02;50.29;100397.47;5104812;28;20047;-24
2023/07/17 06:05:25;;;;;;;9.07;4.70;;;;;;;26.33;51.23;100410.28;5099313;28;20023;-23
2023/07/17 06:07:51;;;;;;;8.07;4.47;;;;;;;26.33;50.27;100407.53;5097982;28;20046;-23
2023/07/17 06:10:18;;;;;;;9.10;4.00;;;;;;;26.44;50.68;100400.69;5107155;28;20117;-25
2023/07/17 06:12:44;;;;;;;9.02;4.78;;;;;;;26.49;50.46;100393.44;5107877;28;20095;-24
2023/07/17 06:15:13;;;;;;;7.53;4.25;;;;;;;26.46;49.88;100397.63;5108273;28;20457;-23
2023/07/17 06:17:40;;;;;;;8.65;4.90;;;;;;;26.65;49.87;100395.44;5107833;28;20028;-23
2023/07/17 06:20:09;;;;;;;9.77;4.63;;;;;;;26.92;50.90;100400.97;5107965;28;20030;-28
2023/07/17 06:22:35;;;;;;;7.13;4.78;;;;;;;26.80;49.58;100396.09;5107723;27;20042;-23
2023/07/17 06:25:00;;;;;;;10.00;4.68;;;;;;;27.12;46.92;100397.59;5107882;28;20020;-23
2023/07/17 06:27:26;;;;;;;7.90;4.50;;;;;;;27.13;46.20;100382.75;5100726;28;20156;-23
2023/07/17 06:29:53;;;;;;;8.45;4.13;;;;;;;27.22;43.18;100400.00;5098704;28;20024;-24
2023/07/17 06:32:21;;;;;;;;;;;;;;;27.28;43.65;100388.91;5087852;28;20028;-23
2023/07/17 06:34:47;;;;;;;6.60;4.05;;;;;;;27.43;40.22;100396.63;5087087;28;20545;-23
2023/07/17 06:37:12;;;;;;;7.30;4.18;;;;;;;27.49;40.31;100400.00;5086917;28;20024;-24
2023/07/17 06:39:38;;;;;;;7.20;4.20;;;;;;;27.65;43.93;100388.19;5087025;28;20571;-23
2023/07/17 06:42:04;;;;;;;11.13;4.20;;;;;;;27.99;42.12;100386.53;5086840;28;20024;-25
2023/07/17 06:44:29;;;;;;;6.93;4.45;;;;;;;28.04;42.62;100378.09;5087196;28;20024;-23
2023/07/17 06:46:54;;;;;;;8.45;4.78;;;;;;;28.14;40.98;100387.13;5086422;28;20032;-23
2023/07/17 06:49:22;;;;;;;9.18;4.63;;;;;;;27.99;41.91;100392.00;5086820;28;20027;-23
2023/07/17 06:51:50;;;;;;;9.07;4.80;;;;;;;28.13;41.87;100380.00;5085834;28;20016;-23
2023/07/17 06:54:18;;;;;;;6.85;4.60;;;;;;;28.18;42.01;100377.09;5085969;28;20504;-23
2023/07/17 06:56:44;;;;;;;8.98;5.18;;;;;;;28.29;41.73;100378.31;5086981;28;20503;-23
2023/07/17 06:59:09;;;;;;;7.70;4.75;;;;;;;28.36;40.75;100369.56;5086140;28;20040;-23
2023/07/17 07:01:34;;;;;;;8.05;4.97;;;;;;;28.28;41.41;100381.38;5086208;28;20032;-23
2023/07/17 07:04:00;;;;;;;9.98;5.20;;;;;;;28.45;41.12;100376.59;5086439;28;20059;-23
2023/07/17 07:06:25;;;;;;;7.05;4.50;;;;;;;28.52;39.20;100375.31;5086761;28;20451;-23
2023/07/17 07:08:51;;;;;;;7.88;4.78;;;;;;;28.80;39.95;100373.66;5086639;28;20482;-23
2023/07/17 07:11:16;;;;;;;9.00;4.82;;;;;;;29.14;39.42;100373.75;5086479;28;20028;-27
2023/07/17 07:13:44;;;;;;;8.77;5.10;;;;;;;28.97;40.32;100364.50;5086508;28;20032;-23
2023/07/17 07:16:09;;;;;;;7.88;4.68;;;;;;;28.99;40.19;100377.88;5086345;28;20779;-23
2023/07/17 07:18:34;;;;;;;5.88;4.50;;;;;;;28.97;38.94;100369.16;5086106;28;20136;-23
2023/07/17 07:21:00;;;;;;;9.07;4.85;;;;;;;29.08;40.58;100364.88;5086236;28;20052;-23
2023/07/17 07:23:25;;;;;;;9.35;4.60;;;;;;;29.38;39.08;100354.63;5086036;28;20043;-23
2023/07/17 07:25:51;;;;;;;6.85;4.20;;;;;;;29.52;37.14;100357.03;5086042;28;20631;-23
2023/07/17 07:28:16;;;;;;;9.88;4.78;;;;;;;29.52;37.76;100357.03;5086111;28;20557;-29
2023/07/17 07:30:42;;;;;;;8.77;4.43;;;;;;;29.71;37.63;100348.31;5085968;28;20077;-24
2023/07/17 07:33:07;;;;;;;6.63;4.18;;;;;;;29.80;38.08;100350.94;5085699;28;20028;-25
2023/07/17 07:35:33;;;;;;;6.32;4.30;;;;;;;29.76;36.88;100350.03;5086132;28;20052;-23
2023/07/17 07:37:58;;;;;;;9.82;5.22;;;;;;;29.58;36.12;100350.19;5085620;28;20082;-23
2023/07/17 07:40:25;;;;;;;6.93;4.10;;;;;;;29.85;36.83;100350.72;5086127;28;20036;-23
2023/07/17 07:42:51;;;;;;;6.35;4.10;;;;;;;29.98;37.62;100346.03;5085699;28;20034;-23
2023/07/17 07:45:17;;;;;;;7.18;4.50;;;;;;;30.07;37.21;100343.16;5085905;28;20032;-24
2023/07/17 07:47:42;;;;;;;5.60;4.05;;;;;;;30.18;35.72;100345.13;5085846;28;20032;-23
2023/07/17 07:50:10;;;;;;;8.23;4.30;;;;;;;30.19;35.05;100345.91;5086049;28;20020;-24
2023/07/17 07:52:36;;;;;;;;;;;;;;;30.39;34.16;100345.00;5086365;28;20147;-23
2023/07/17 07:55:01;;;;;;;6.72;4.53;;;;;;;30.31;35.99;100343.19;5085414;28;20011;-23
2023/07/17 07:57:26;;;;;;;7.22;4.53;;;;;;;30.12;35.17;100334.69;5085509;28;20035;-23
2023/07/17 07:59:54;;;;;;;10.52;4.72;;;;;;;30.22;33.55;100339.75;5085522;28;20064;-23
2023/07/17 08:02:20;;;;;;;8.50;4.63;;;;;;;30.32;33.88;100344.81;5085376;28;20114;-22
2023/07/17 08:04:45;;;;;;;7.55;4.30;;;;;;;30.67;34.16;100341.53;5085461;28;20114;-23
2023/07/17 08:07:11;;;;;;;8.48;5.07;;;;;;;30.66;33.94;100331.66;5085347;28;20024;-23
2023/07/17 08:09:36;;;;;;;7.65;4.15;;;;;;;30.92;33.89;100330.47;5085372;28;20064;-22
2023/07/17 08:12:02;;;;;;;7.55;4.38;;;;;;;31.14;34.73;100329.91;5084412;28;20921;-24
2023/07/17 08:14:28;;;;;;;10.50;4.70;;;;;;;31.42;32.46;100331.81;5085285;28;20546;-23
2023/07/17 08:16:53;;;;;;;5.65;4.30;;;;;;;30.89;31.43;100339.41;5085223;28;20028;-23
2023/07/17 08:19:20;;;;;;;6.38;3.90;;;;;;;31.21;32.90;100327.31;5084812;28;20032;-23
2023/07/17 08:21:45;;;;;;;15.55;5.95;;;;;;;31.02;33.05;100329.97;5085351;28;20016;-23
2023/07/17 08:24:13;;;;;;;11.85;4.75;;;;;;;31.61;33.37;100325.66;5084919;28;20039;-23
2023/07/17 08:26:40;;;;;;;12.70;4.78;;;;;;;31.89;32.73;100317.25;5084865;28;20107;-23
2023/07/17 08:29:06;;;;;;;9.38;5.07;;;;;;;32.10;32.30;100327.22;5083670;28;20047;-23
2023/07/17 08:31:32;;;;;;;11.90;4.85;;;;;;;32.30;31.53;100317.03;5084923;28;20063;-23
2023/07/17 08:33:59;;;;;;;7.18;4.13;;;;;;;32.45;29.82;100324.50;5084728;28;20040;-24
2023/07/17 08:36:26;;;;;;;8.95;4.50;;;;;;;32.24;30.79;100316.50;5085017;28;20016;-24
2023/07/17 08:38:56;;;;;;;8.57;4.25;;;;;;;32.08;30.37;100318.50;5084585;28;20065;-22
2023/07/17 08:41:22;;;;;;;7.85;4.22;;;;;;;31.95;30.94;100310.31;5085038;28;20035;-23
2023/07/17 08:43:54;;;;;;;8.13;4.10;;;;;;;32.61;32.72;100311.47;5084770;28;20028;-26
2023/07/17 08:46:20;;;;;;;6.63;4.25;;;;;;;32.78;28.90;100310.22;5084292;28;20115;-23
2023/07/17 08:48:47;;;;;;;7.45;4.65;;;;;;;33.11;28.80;100310.88;5084926;28;20103;-23
2023/07/17 08:51:16;;;;;;;7.30;4.28;;;;;;;33.17;27.43;100310.22;5084698;28;20123;-23
2023/07/17 08:54:02;;;;;;;6.07;3.90;;;;;;;33.37;27.20;100304.66;5084176;28;20566;-24
2023/07/17 08:56:27;;;;;;;7.32;4.55;;;;;;;33.52;29.04;100303.72;5084383;28;20150;-22
2023/07/17 08:58:54;;;;;;;7.10;4.28;;;;;;;33.76;28.75;100301.78;5084253;28;20123;-23
2023/07/17 09:01:20;;;;;;;7.80;4.18;;;;;;;34.09;27.77;100303.06;5084707;28;20171;-23
2023/07/17 09:03:46;;;;;;;5.80;4.30;;;;;;;34.29;28.26;100296.25;5084588;28;20127;-22
2023/07/17 09:06:13;;;;;;;6.95;4.53;;;;;;;33.97;27.49;100290.22;5084450;28;20698;-23
2023/07/17 09:08:39;;;;;;;8.10;4.43;;;;;;;34.06;27.63;100304.56;5084474;28;20034;-22
2023/07/17 09:11:06;;;;;;;6.85;4.40;;;;;;;34.16;27.67;100304.00;5084206;28;20016;-23
2023/07/17 09:13:42;;;;;;;7.95;3.90;;;;;;;34.39;27.01;100300.34;5083844;28;20032;-22
2023/07/17 09:16:19;;;;;;;6.10;4.22;;;;;;;34.46;27.56;100288.56;5084401;28;20027;-23
2023/07/17 09:18:45;;;;;;;8.48;4.03;;;;;;;34.72;28.32;100296.03;5084349;28;20508;-23
2023/07/17 09:21:13;;;;;;;6.32;4.00;;;;;;;34.93;26.09;100301.81;5084417;28;20016;-22
2023/07/17 09:23:46;;;;;;;;;;;;;;;35.32;25.29;100308.97;5083453;28;20406;-23
2023/07/17 09:26:16;;;;;;;6.93;4.30;;;;;;;35.37;26.83;100298.31;5084353;28;19908;-23
2023/07/17 09:28:54;;;;;;;6.82;4.18;;;;;;;35.03;25.68;100294.00;5083980;28;20031;-23
2023/07/17 09:31:27;;;;;;;10.93;6.57;;;;;;;35.30;25.92;100297.47;5084032;28;20042;-24
2023/07/17 09:33:53;;;;;;;13.45;7.85;;;;;;;35.53;26.22;100286.97;5083734;28;20148;-23
2023/07/17 09:36:21;;;;;;;6.38;4.60;;;;;;;35.71;25.79;100295.44;5083634;28;20788;-24
2023/07/17 09:38:52;;;;;;;7.25;4.47;;;;;;;35.85;24.97;100283.66;5083995;28;20028;-24
2023/07/17 09:41:25;;;;;;;6.18;4.00;;;;;;;35.83;25.56;100277.72;5083939;28;20039;-25
2023/07/17 09:44:09;;;;;;;6.28;4.10;;;;;;;35.77;25.53;100276.47;5083923;28;20564;-24
2023/07/17 09:46:35;;;;;;;7.35;4.38;;;;;;;35.57;25.58;100273.94;5083884;28;20085;-24
2023/07/17 09:49:03;;;;;;;5.77;4.10;;;;;;;35.77;26.91;100262.59;5084055;28;20060;-23
2023/07/17 09:51:32;;;;;;;6.78;4.10;;;;;;;35.89;26.70;100267.06;5083910;28;20030;-25
2023/07/17 09:53:58;;;;;;;7.43;4.43;;;;;;;35.75;26.66;100267.75;5083797;28;20032;-23
2023/07/17 09:56:29;;;;;;;5.10;3.75;;;;;;;35.84;25.78;100271.00;5084120;28;20032;-24
2023/07/17 09:59:04;;;;;;;6.65;4.20;;;;;;;35.73;25.20;100259.00;5083676;28;20564;-23
2023/07/17 10:01:30;;;;;;;6.22;4.47;;;;;;;35.87;24.91;100264.66;5084010;28;20408;-23
2023/07/17 10:04:00;;;;;;;7.38;4.13;;;;;;;36.12;25.03;100259.25;5083697;28;20028;-24
2023/07/17 10:06:25;;;;;;;6.32;3.75;;;;;;;36.15;26.12;100252.94;5083486;28;20032;-23
2023/07/17 10:08:55;;;;;;;6.68;3.90;;;;;;;35.94;24.63;100250.84;5083717;28;20028;-23
2023/07/17 10:11:21;;;;;;;8.13;4.38;;;;;;;35.94;25.93;100248.06;5083629;28;20139;-24
2023/07/17 10:13:48;;;;;;;7.30;4.38;;;;;;;36.19;25.29;100248.22;5083823;28;20136;-24
2023/07/17 10:16:16;;;;;;;10.52;4.07;;;;;;;36.33;24.85;100247.50;5083766;28;20028;-24
2023/07/17 10:18:54;;;;;;;8.30;4.72;;;;;;;36.43;25.60;100239.56;5083367;28;20031;-24
2023/07/17 10:21:22;;;;;;;6.78;4.53;;;;;;;36.62;23.64;100239.25;5083697;28;20052;-25
2023/07/17 10:24:01;;;;;;;6.43;4.15;;;;;;;36.29;24.07;100231.97;5083648;28;20038;-24
2023/07/17 10:26:27;;;;;;;6.47;4.32;;;;;;;36.49;23.80;100232.47;5083364;28;20071;-24
2023/07/17 10:28:53;;;;;;;8.07;4.32;;;;;;;36.73;24.62;100237.31;5083858;28;20022;-24
2023/07/17 10:31:19;;;;;;;5.50;3.70;;;;;;;36.15;25.63;100232.75;5083498;28;20024;-26
2023/07/17 10:33:56;;;;;;;7.30;4.40;;;;;;;36.40;25.33;100216.16;5084586;28;20455;-24
2023/07/17 10:36:42;;;;;;;5.80;4.45;;;;;;;36.32;24.95;100201.47;5087136;28;20503;-26
2023/07/17 10:39:15;;;;;;;6.55;4.13;;;;;;;36.86;25.33;100211.94;5087051;28;20797;-25
2023/07/17 10:41:43;;;;;;;8.73;5.97;;;;;;;37.24;24.78;100204.06;5087208;28;20120;-27
2023/07/17 10:44:08;;;;;;;8.18;5.60;;;;;;;37.15;25.86;100219.16;5086796;28;20151;-24
2023/07/17 10:46:36;;;;;;;9.25;5.65;;;;;;;36.78;24.92;100205.59;5087191;28;20111;-24
2023/07/17 10:49:09;;;;;;;10.55;7.90;;;;;;;37.18;25.95;100201.66;5086967;28;20099;-24
2023/07/17 10:51:36;;;;;;;9.27;4.65;;;;;;;37.30;24.26;100194.91;5086802;28;20024;-24
2023/07/17 10:54:02;;;;;;;6.63;4.22;;;;;;;37.37;25.72;100197.69;5086769;28;20032;-23
2023/07/17 10:56:29;;;;;;;6.95;4.57;;;;;;;37.50;24.73;100189.72;5086767;28;20035;-24
2023/07/17 10:58:55;;;;;;;8.35;5.18;;;;;;;37.14;24.98;100186.97;5086658;28;20044;-23
2023/07/17 11:01:21;;;;;;;10.52;4.68;;;;;;;37.46;24.79;100188.16;5086599;28;20091;-24
2023/07/17 11:03:47;;;;;;;8.20;4.80;;;;;;;37.94;25.15;100190.44;5086940;28;20484;-24
2023/07/17 11:06:20;;;;;;;7.10;5.40;;;;;;;37.94;24.50;100184.88;5086665;28;20119;-23
2023/07/17 11:08:52;;;;;;;14.50;12.07;;;;;;;38.26;23.68;100179.19;5086656;28;20051;-24
2023/07/17 11:11:19;;;;;;;8.45;5.25;;;;;;;38.63;22.88;100179.81;5086591;28;20024;-23
2023/07/17 11:13:52;;;;;;;7.75;5.30;;;;;;;38.78;23.17;100178.50;5086770;28;20036;-23
2023/07/17 11:16:28;;;;;;;7.80;4.90;;;;;;;38.26;23.98;100173.63;5086855;28;20032;-24
2023/07/17 11:19:04;;;;;;;8.45;5.25;;;;;;;38.47;24.90;100169.13;5086536;28;20937;-24
2023/07/17 11:21:32;;;;;;;6.78;5.30;;;;;;;38.11;24.84;100177.69;5086570;28;20038;-25
2023/07/17 11:23:58;;;;;;;6.68;4.65;;;;;;;38.58;24.50;100173.47;5086256;28;20016;-24